EW9783 Weather Reports


Display with metric or nautical units.
time (UTC)temp
F
wind
direction
speed
MPH
gust
MPH
rain 1hr
in
rain 24hr
in
rain mn
in
humidity
%
barometer
mb
20200923100036 36 150 0.0 0.0 0.00 0.00 0.00 90 1013.8
20200923093155 36 150 0.0 0.0 0.00 0.00 0.00 89 1014.0
20200923091546 36 150 0.0 0.0 0.00 0.00 0.00 89 1014.0
20200923090021 36 150 0.0 0.0 0.00 0.00 0.00 89 1014.0
20200923083128 37 150 0.0 0.0 0.00 0.00 0.00 88 1014.1
20200923081517 37 150 0.0 0.0 0.00 0.00 0.00 87 1014.0
20200923074743 38 150 0.0 3.0 0.00 0.00 0.00 86 1014.2
20200923073150 39 150 0.0 2.0 0.00 0.00 0.00 85 1014.3
20200923071531 39 150 0.0 0.0 0.00 0.00 0.00 84 1014.4
20200923064654 40 150 0.0 0.0 0.00 0.00 0.00 81 1014.5
20200923063108 41 150 0.0 2.0 0.00 0.00 0.00 80 1014.6
20200923060154 42 150 0.0 1.0 0.00 0.00 0.00 78 1014.9
20200923054528 43 150 0.0 1.0 0.00 0.00 0.00 77 1015.1
20200923051643 43 150 0.0 5.0 0.00 0.00 0.00 74 1015.2
20200923050019 43 119 0.0 3.0 0.00 0.00 0.00 72 1015.3
20200923044523 44 119 0.0 2.0 0.00 0.00 0.00 70 1015.3
20200923041636 45 119 0.0 3.0 0.00 0.00 0.00 68 1015.2
20200923040042 45 119 0.0 3.0 0.00 0.00 0.00 67 1015.3
20200923034513 46 119 0.0 1.0 0.00 0.00 0.00 65 1015.4
20200923031648 47 119 0.0 3.0 0.00 0.00 0.00 62 1015.6
20200923030019 49 119 1.0 4.0 0.00 0.00 0.00 60 1015.6
20200923023218 49 131 0.0 3.0 0.00 0.00 0.00 59 1015.5
20200923021518 50 123 2.0 5.0 0.00 0.00 0.00 58 1015.4
20200923020034 50 125 2.0 5.0 0.00 0.00 0.00 57 1015.2
20200923013157 51 119 3.0 8.0 0.00 0.00 0.00 55 1015.1
20200923011606 52 161 2.0 7.0 0.00 0.00 0.00 54 1015.1
20200923004554 54 130 5.0 11.0 0.00 0.00 0.00 51 1015.0
20200923001635 55 147 5.0 10.0 0.00 0.00 0.00 50 1014.9
20200923000032 55 113 4.0 9.0 0.00 0.00 0.00 49 1015.0
20200922233109 56 130 3.0 14.0 0.00 0.00 0.00 47 1015.0
20200922231521 57 152 3.0 13.0 0.00 0.00 0.00 47 1015.1
20200922224649 57 121 5.0 14.0 0.00 0.00 0.00 47 1014.9
20200922221707 56 113 9.0 16.0 0.00 0.00 0.00 49 1015.3
20200922220042 56 170 3.0 12.0 0.00 0.00 0.00 49 1015.4
20200922214618 57 136 5.0 13.0 0.00 0.00 0.00 51 1015.4
20200922211654 55 145 4.0 10.0 0.00 0.00 0.00 52 1015.6
20200922204617 53 130 4.0 13.0 0.00 0.00 0.00 54 1015.8
20200922203044 54 122 4.0 13.0 0.00 0.00 0.00 53 1015.9
20200922200234 55 130 4.0 13.0 0.00 0.00 0.00 52 1016.0
20200922194637 54 115 4.0 10.0 0.00 0.00 0.00 53 1016.0
20200922191637 53 159 4.0 8.0 0.00 0.00 0.00 54 1016.5
20200922190041 53 135 4.0 10.0 0.00 0.00 0.00 53 1016.7
20200922183145 53 118 1.0 6.0 0.00 0.00 0.00 56 1016.7
20200922181519 52 138 3.0 6.0 0.00 0.00 0.00 55 1017.0
20200922174621 52 118 3.0 6.0 0.00 0.00 0.00 57 1017.0
20200922173028 52 134 2.0 5.0 0.00 0.00 0.00 58 1016.9
20200922170117 51 121 3.0 9.0 0.00 0.00 0.00 61 1017.1
20200922164537 50 117 0.0 5.0 0.00 0.00 0.00 62 1017.2
20200922163351 49 131 0.0 6.0 0.00 0.00 0.00 65 1017.2
20200922161529 48 132 0.0 4.0 0.00 0.00 0.00 68 1017.2
20200922160232 47 49 0.0 3.0 0.00 0.00 0.00 71 1017.2
20200922154631 46 333 0.0 0.0 0.00 0.00 0.00 75 1017.0
20200922150050 43 308 0.0 3.0 0.00 0.00 0.00 82 1017.1
20200922144503 42 308 0.0 2.0 0.00 0.00 0.00 84 1017.1
20200922141613 40 308 0.0 4.0 0.00 0.00 0.00 85 1017.0
20200922140049 40 308 0.0 2.0 0.00 0.00 0.00 85 1016.5
20200922134522 39 308 0.0 3.0 0.00 0.00 0.00 85 1016.5
20200922133112 39 308 1.0 3.0 0.00 0.00 0.00 86 1016.4
20200922131528 39 308 1.0 4.0 0.00 0.00 0.00 85 1016.4
20200922124551 40 308 0.0 3.0 0.00 0.00 0.00 85 1016.2
20200922121644 40 308 1.0 4.0 0.00 0.00 0.00 85 1015.9
20200922120027 40 308 1.0 4.0 0.00 0.00 0.00 85 1015.8
20200922113148 40 308 0.0 4.0 0.00 0.00 0.00 84 1015.5
20200922110314 41 309 0.0 2.0 0.00 0.00 0.00 83 1015.2
20200922104705 42 309 0.0 3.0 0.00 0.00 0.00 83 1015.1